createdAt,value
2022-10-14T00:02:07.287Z,1.00
2022-10-14T00:04:34.273Z,1.10
2022-10-14T00:07:01.040Z,1.02
2022-10-14T00:09:27.931Z,1.10
2022-10-14T00:11:54.784Z,1.30
2022-10-14T00:14:22.114Z,1.08
2022-10-14T00:16:52.376Z,1.05
2022-10-14T00:19:19.392Z,1.27
2022-10-14T00:21:47.158Z,1.10
2022-10-14T00:24:16.319Z,1.27
2022-10-14T00:26:43.563Z,1.10
2022-10-14T00:29:15.674Z,1.15
2022-10-14T00:31:42.577Z,1.30
2022-10-14T00:34:13.280Z,1.10
2022-10-14T00:36:41.357Z,1.30
2022-10-14T00:39:08.887Z,1.17
2022-10-14T00:41:36.177Z,1.20
2022-10-14T00:44:08.794Z,1.30
2022-10-14T00:46:47.199Z,1.08
2022-10-14T00:49:15.855Z,1.23
2022-10-14T00:51:48.044Z,1.10
2022-10-14T00:54:18.038Z,1.08
2022-10-14T00:56:46.376Z,1.30
2022-10-14T00:59:13.526Z,1.30
2022-10-14T01:01:40.752Z,1.45
2022-10-14T01:04:07.606Z,1.52
2022-10-14T01:07:03.837Z,1.38
2022-10-14T01:09:33.240Z,1.50
2022-10-14T01:12:36.470Z,1.38
2022-10-14T01:15:27.362Z,1.42
2022-10-14T01:18:15.176Z,1.40
2022-10-14T01:20:45.852Z,1.33
2022-10-14T01:23:15.533Z,1.30
2022-10-14T01:26:06.893Z,1.60
2022-10-14T01:31:07.450Z,1.30
2022-10-14T01:33:46.698Z,1.50
2022-10-14T01:36:22.664Z,1.40
2022-10-14T01:39:11.053Z,1.30
2022-10-14T01:41:42.306Z,1.40
2022-10-14T01:44:12.102Z,1.40
2022-10-14T01:46:43.658Z,1.25
2022-10-14T01:49:24.395Z,1.33
2022-10-14T01:51:57.688Z,1.27
2022-10-14T01:54:30.991Z,1.35
2022-10-14T01:57:02.521Z,1.40
2022-10-14T01:59:31.536Z,1.10
2022-10-14T02:01:58.506Z,1.42
2022-10-14T02:04:25.367Z,1.35
2022-10-14T02:07:19.013Z,1.23
2022-10-14T02:09:52.211Z,1.30
2022-10-14T02:12:40.347Z,1.35
2022-10-14T02:15:19.903Z,1.20
2022-10-14T02:18:04.993Z,1.50
2022-10-14T02:20:41.655Z,1.30
2022-10-14T02:23:19.580Z,1.40
2022-10-14T02:25:48.511Z,1.20
2022-10-14T02:28:22.198Z,1.23
2022-10-14T02:31:00.537Z,1.30
2022-10-14T02:33:33.701Z,0.90
2022-10-14T02:36:03.882Z,1.33
2022-10-14T02:38:31.946Z,1.17
2022-10-14T02:41:02.168Z,1.30
2022-10-14T02:43:29.010Z,1.30
2022-10-14T02:46:00.595Z,0.90
2022-10-14T02:48:27.467Z,1.00
2022-10-14T02:50:54.287Z,1.15
2022-10-14T02:53:21.270Z,1.00
2022-10-14T02:55:48.170Z,1.20
2022-10-14T02:58:15.456Z,1.10
2022-10-14T03:00:42.638Z,1.20
2022-10-14T03:03:09.478Z,1.10
2022-10-14T03:05:36.514Z,0.90
2022-10-14T03:08:03.376Z,0.90
2022-10-14T03:10:30.199Z,1.00
2022-10-14T03:12:57.042Z,1.00
2022-10-14T03:15:24.205Z,1.00
2022-10-14T03:17:50.999Z,1.05
2022-10-14T03:20:17.929Z,1.25
2022-10-14T03:22:44.771Z,1.08
2022-10-14T03:25:11.744Z,1.02
2022-10-14T03:27:38.621Z,0.95
2022-10-14T03:30:06.019Z,1.00
2022-10-14T03:32:32.822Z,1.50
2022-10-14T03:34:59.637Z,1.20
2022-10-14T03:37:26.446Z,0.90
2022-10-14T03:39:53.458Z,1.00
2022-10-14T03:42:20.605Z,0.90
2022-10-14T03:44:47.645Z,0.90
2022-10-14T03:47:14.504Z,1.00
2022-10-14T03:49:41.335Z,0.73
2022-10-14T03:52:08.211Z,0.80
2022-10-14T03:54:35.001Z,1.00
2022-10-14T03:57:01.771Z,1.27
2022-10-14T03:59:28.650Z,0.95
2022-10-14T04:01:55.675Z,0.68
2022-10-14T04:04:22.556Z,0.98
2022-10-14T04:06:49.444Z,0.70
2022-10-14T04:09:16.375Z,0.60
2022-10-14T04:11:43.259Z,0.90
2022-10-14T04:14:10.055Z,0.75
2022-10-14T04:16:36.891Z,0.73
2022-10-14T04:19:04.280Z,0.80
2022-10-14T04:21:31.123Z,0.70
2022-10-14T04:23:57.925Z,0.60
2022-10-14T04:26:24.782Z,0.63
2022-10-14T04:28:51.670Z,0.57
2022-10-14T04:31:18.516Z,0.60
2022-10-14T04:33:45.323Z,0.60
2022-10-14T04:36:12.108Z,0.50
2022-10-14T04:38:38.961Z,0.65
2022-10-14T04:41:05.863Z,0.60
2022-10-14T04:43:32.699Z,0.75
2022-10-14T04:45:59.622Z,0.60
2022-10-14T04:48:26.412Z,0.60
2022-10-14T04:50:54.201Z,0.60
2022-10-14T04:53:22.438Z,0.50
2022-10-14T04:55:49.919Z,0.68
2022-10-14T04:58:17.304Z,0.60
2022-10-14T05:00:44.381Z,0.50
2022-10-14T05:03:11.396Z,0.60
2022-10-14T05:05:38.318Z,0.40
2022-10-14T05:08:05.696Z,0.50
2022-10-14T05:10:33.799Z,0.70
2022-10-14T05:13:00.816Z,0.55
2022-10-14T05:15:27.656Z,0.77
2022-10-14T05:17:54.614Z,0.70
2022-10-14T05:20:21.449Z,0.73
2022-10-14T05:22:48.352Z,1.08
2022-10-14T05:25:15.427Z,2.47
2022-10-14T05:27:42.377Z,3.80
2022-10-14T05:30:10.076Z,1.15
2022-10-14T05:32:37.272Z,2.42
2022-10-14T05:35:04.919Z,1.33
2022-10-14T05:37:31.768Z,2.25
2022-10-14T05:39:58.703Z,2.90
2022-10-14T05:42:25.627Z,2.78
2022-10-14T05:44:52.427Z,2.90
2022-10-14T05:47:19.245Z,3.75
2022-10-14T05:49:46.067Z,2.40
2022-10-14T05:52:12.892Z,2.70
2022-10-14T05:54:39.752Z,2.90
2022-10-14T05:57:06.655Z,4.00
2022-10-14T05:59:35.022Z,6.75
2022-10-14T06:02:03.060Z,3.78
2022-10-14T06:04:30.299Z,4.03
2022-10-14T06:06:57.159Z,3.33
2022-10-14T06:09:24.023Z,3.13
2022-10-14T06:11:50.921Z,3.10
2022-10-14T06:14:17.847Z,3.03
2022-10-14T06:16:44.799Z,2.58
2022-10-14T06:19:11.609Z,3.05
2022-10-14T06:21:38.690Z,2.85
2022-10-14T06:24:05.967Z,3.42
2022-10-14T06:26:33.033Z,5.47
2022-10-14T06:29:00.025Z,3.97
2022-10-14T06:31:31.345Z,2.90
2022-10-14T06:33:59.425Z,2.42
2022-10-14T06:36:27.021Z,2.75
2022-10-14T06:38:54.739Z,2.47
2022-10-14T06:41:21.593Z,2.70
2022-10-14T06:43:48.559Z,2.90
2022-10-14T06:46:15.457Z,2.53
2022-10-14T06:48:45.719Z,2.15
2022-10-14T06:51:14.949Z,2.25
2022-10-14T06:53:42.485Z,2.08
2022-10-14T06:56:12.128Z,2.03
2022-10-14T06:58:39.199Z,1.95
2022-10-14T07:01:08.466Z,1.70
2022-10-14T07:03:37.202Z,1.90
2022-10-14T07:06:05.200Z,1.90
2022-10-14T07:08:32.517Z,1.73
2022-10-14T07:10:59.595Z,2.25
2022-10-14T07:13:27.056Z,2.50
2022-10-14T07:15:53.959Z,2.20
2022-10-14T07:18:20.981Z,1.60
2022-10-14T07:20:47.961Z,1.60
2022-10-14T07:23:15.107Z,1.75
2022-10-14T07:25:42.195Z,1.88
2022-10-14T07:28:09.891Z,1.75
2022-10-14T07:30:37.032Z,1.48
2022-10-14T07:33:04.136Z,1.30
2022-10-14T07:35:31.150Z,1.15
2022-10-14T07:37:59.775Z,1.20
2022-10-14T07:40:27.869Z,1.42
2022-10-14T07:42:54.788Z,1.38
2022-10-14T07:45:21.869Z,1.30
2022-10-14T07:47:51.217Z,1.20
2022-10-14T07:50:19.056Z,1.27
2022-10-14T07:52:45.961Z,0.90
2022-10-14T07:55:12.981Z,1.08
2022-10-14T07:57:39.965Z,1.20
2022-10-14T08:00:07.811Z,1.20
2022-10-14T08:02:35.105Z,1.00
2022-10-14T08:07:49.380Z,1.08
2022-10-14T08:10:16.862Z,1.40
2022-10-14T08:12:44.118Z,1.00
2022-10-14T08:15:11.176Z,0.82
2022-10-14T08:17:38.152Z,0.95
2022-10-14T08:20:05.579Z,0.75
2022-10-14T08:22:32.654Z,0.77
2022-10-14T08:24:59.713Z,0.98
2022-10-14T08:27:27.163Z,0.85
2022-10-14T08:29:55.200Z,0.82
2022-10-14T08:32:23.869Z,1.00
2022-10-14T08:34:51.122Z,0.90
2022-10-14T08:37:18.246Z,1.25
2022-10-14T08:39:45.240Z,1.08
2022-10-14T08:42:40.256Z,0.70
2022-10-14T08:45:39.655Z,0.73
2022-10-14T08:48:16.347Z,0.90
2022-10-14T08:51:15.959Z,1.05
2022-10-14T08:53:51.388Z,0.95
2022-10-14T08:56:19.920Z,1.17
2022-10-14T08:58:52.651Z,0.77
2022-10-14T09:01:22.991Z,0.80
2022-10-14T09:03:54.224Z,1.30
2022-10-14T09:09:00.636Z,1.05
2022-10-14T09:11:33.565Z,0.70
2022-10-14T09:14:02.569Z,0.85
2022-10-14T09:16:34.495Z,0.77
2022-10-14T09:19:04.387Z,0.77
2022-10-14T09:21:52.280Z,0.95
2022-10-14T09:24:29.375Z,0.73
2022-10-14T09:27:05.678Z,0.60
2022-10-14T09:29:34.623Z,0.63
2022-10-14T09:32:09.480Z,0.60
2022-10-14T09:34:45.305Z,0.88
2022-10-14T09:37:32.374Z,0.60
2022-10-14T09:40:03.801Z,0.85
2022-10-14T09:42:44.609Z,0.82
2022-10-14T09:45:22.933Z,0.50
2022-10-14T09:47:57.362Z,0.70
2022-10-14T09:50:36.425Z,0.60
2022-10-14T09:53:14.951Z,0.55
2022-10-14T09:56:00.132Z,0.63
2022-10-14T09:58:53.984Z,0.77
2022-10-14T10:01:24.141Z,0.80
2022-10-14T10:03:52.890Z,1.00
2022-10-14T10:06:27.402Z,1.20
2022-10-14T10:08:54.362Z,1.20
2022-10-14T10:11:39.464Z,1.50
2022-10-14T10:14:18.918Z,1.38
2022-10-14T10:16:45.970Z,1.40
2022-10-14T10:19:32.586Z,1.50
2022-10-14T10:25:09.075Z,1.50
2022-10-14T10:27:36.730Z,1.50
2022-10-14T10:30:24.988Z,1.50
2022-10-14T10:32:57.823Z,1.60
2022-10-14T10:35:37.280Z,1.70
2022-10-14T10:38:16.099Z,1.55
2022-10-14T10:40:53.778Z,1.65
2022-10-14T10:43:33.196Z,1.77
2022-10-14T10:46:11.941Z,1.42
2022-10-14T10:48:50.494Z,1.65
2022-10-14T10:51:43.335Z,1.30
2022-10-14T10:54:35.226Z,1.38
2022-10-14T10:57:09.644Z,1.40
2022-10-14T11:00:18.731Z,1.50
2022-10-14T11:03:10.846Z,1.10
2022-10-14T11:05:41.933Z,1.33
2022-10-14T11:08:39.566Z,1.13
2022-10-14T11:11:47.100Z,1.37
2022-10-14T11:14:34.100Z,1.20
2022-10-14T11:17:04.015Z,1.40
2022-10-14T11:19:42.956Z,1.20
2022-10-14T11:22:34.392Z,1.30
2022-10-14T11:25:18.236Z,1.17
2022-10-14T11:27:49.114Z,1.20
2022-10-14T11:30:19.529Z,1.40
2022-10-14T11:32:52.230Z,1.03
2022-10-14T11:38:20.868Z,1.20
2022-10-14T11:40:53.665Z,0.98
2022-10-14T11:43:42.125Z,1.10
2022-10-14T11:46:12.434Z,1.08
2022-10-14T11:48:52.474Z,1.10
2022-10-14T11:51:35.575Z,1.27
2022-10-14T11:54:19.021Z,1.00
2022-10-14T11:57:02.412Z,1.00
2022-10-14T11:59:38.027Z,0.85
2022-10-14T12:02:37.021Z,1.00
2022-10-14T12:05:41.150Z,1.05
2022-10-14T12:08:21.389Z,0.77
2022-10-14T12:11:07.580Z,1.20
2022-10-14T12:13:47.750Z,0.77
2022-10-14T12:16:18.032Z,0.63
2022-10-14T12:18:47.287Z,0.70
2022-10-14T12:21:29.403Z,0.70
2022-10-14T12:24:04.964Z,0.77
2022-10-14T12:26:43.887Z,1.25
2022-10-14T12:29:15.749Z,1.00
2022-10-14T12:31:49.678Z,0.90
2022-10-14T12:34:29.338Z,0.80
2022-10-14T12:36:56.245Z,0.52
2022-10-14T12:39:32.025Z,1.08
2022-10-14T12:42:11.673Z,0.80
2022-10-14T12:44:48.412Z,0.90
2022-10-14T12:47:23.344Z,0.60
2022-10-14T12:49:54.128Z,0.93
2022-10-14T12:52:27.360Z,0.80
2022-10-14T12:54:55.514Z,0.70
2022-10-14T12:57:36.247Z,0.60
2022-10-14T13:00:22.613Z,0.47
2022-10-14T13:03:21.451Z,0.60
2022-10-14T13:05:48.571Z,0.60
2022-10-14T13:08:21.320Z,0.52
2022-10-14T13:11:12.495Z,0.40
2022-10-14T13:13:42.589Z,0.93
2022-10-14T13:16:30.355Z,0.93
2022-10-14T13:19:01.058Z,0.60
2022-10-14T13:21:51.896Z,0.50
2022-10-14T13:24:33.270Z,0.70
2022-10-14T13:27:31.188Z,0.60
2022-10-14T13:30:16.694Z,0.70
2022-10-14T13:32:50.704Z,0.73
2022-10-14T13:35:45.974Z,0.43
2022-10-14T13:38:19.745Z,0.82
2022-10-14T13:40:56.768Z,2.03
2022-10-14T13:43:29.016Z,1.15
2022-10-14T13:45:58.725Z,0.63
2022-10-14T13:48:32.782Z,1.27
2022-10-14T13:51:39.474Z,1.00
2022-10-14T13:54:17.134Z,0.80
2022-10-14T13:56:44.622Z,1.23
2022-10-14T13:59:43.268Z,1.00
2022-10-14T14:02:21.592Z,0.95
2022-10-14T14:04:52.649Z,0.68
2022-10-14T14:07:59.660Z,0.50
2022-10-14T14:10:12.729Z,0.80
2022-10-14T14:12:43.443Z,0.65
2022-10-14T14:15:30.230Z,0.90
2022-10-14T14:17:57.400Z,0.63
2022-10-14T14:20:28.819Z,0.80
2022-10-14T14:22:58.868Z,0.80
2022-10-14T14:25:35.429Z,1.25
2022-10-14T14:28:08.061Z,1.60
2022-10-14T14:33:16.045Z,1.25
2022-10-14T14:35:54.098Z,2.58
2022-10-14T14:38:30.031Z,1.60
2022-10-14T14:41:02.802Z,1.27
2022-10-14T14:43:36.428Z,1.10
2022-10-14T14:46:05.875Z,1.70
2022-10-14T14:48:34.449Z,1.20
2022-10-14T14:51:02.264Z,1.23
2022-10-14T14:53:32.715Z,1.27
2022-10-14T14:56:13.571Z,1.73
2022-10-14T14:58:52.933Z,1.00
2022-10-14T15:01:24.266Z,0.90
2022-10-14T15:04:15.738Z,0.98
2022-10-14T15:06:51.902Z,1.38
2022-10-14T15:09:30.631Z,1.33
2022-10-14T15:11:58.176Z,1.17
2022-10-14T15:14:47.827Z,1.10
2022-10-14T15:17:35.970Z,1.08
2022-10-14T15:20:05.954Z,0.82
2022-10-14T15:22:40.257Z,1.25
2022-10-14T15:25:25.702Z,1.00
2022-10-14T15:27:54.079Z,1.10
2022-10-14T15:30:21.245Z,1.00
2022-10-14T15:32:49.280Z,0.73
2022-10-14T15:35:18.901Z,1.27
2022-10-14T15:37:46.427Z,1.25
2022-10-14T15:40:16.314Z,2.00
2022-10-14T15:42:43.247Z,2.15
2022-10-14T15:45:10.547Z,1.60
2022-10-14T15:47:38.547Z,1.48
2022-10-14T15:50:25.780Z,1.58
2022-10-14T15:52:54.421Z,0.85
2022-10-14T15:55:28.555Z,0.60
2022-10-14T15:57:55.491Z,0.82
2022-10-14T16:00:24.864Z,0.47
2022-10-14T16:02:58.721Z,0.75
2022-10-14T16:05:29.991Z,0.68
2022-10-14T16:07:57.791Z,0.63
2022-10-14T16:10:28.199Z,0.60
2022-10-14T16:12:57.661Z,1.20
2022-10-14T16:15:33.651Z,1.10
2022-10-14T16:18:00.927Z,1.00
2022-10-14T16:20:28.492Z,0.70
2022-10-14T16:22:55.423Z,1.02
2022-10-14T16:25:24.336Z,0.70
2022-10-14T16:27:51.408Z,0.82
2022-10-14T16:30:18.523Z,0.70
2022-10-14T16:32:45.450Z,0.70
2022-10-14T16:35:12.689Z,1.13
2022-10-14T16:37:40.955Z,0.70
2022-10-14T16:40:11.040Z,0.43
2022-10-14T16:42:38.008Z,1.00
2022-10-14T16:45:05.777Z,0.70
2022-10-14T16:47:32.875Z,0.50
2022-10-14T16:50:00.218Z,0.65
2022-10-14T16:52:27.325Z,1.10
2022-10-14T16:54:54.508Z,0.50
2022-10-14T16:57:21.753Z,0.77
2022-10-14T16:59:48.809Z,0.60
2022-10-14T17:02:16.956Z,0.50
2022-10-14T17:04:46.650Z,0.68
2022-10-14T17:07:15.339Z,0.70
2022-10-14T17:09:42.429Z,1.20
2022-10-14T17:12:13.808Z,1.20
2022-10-14T17:14:41.963Z,1.13
2022-10-14T17:17:09.148Z,1.00
2022-10-14T17:19:36.528Z,0.93
2022-10-14T17:22:03.649Z,0.60
2022-10-14T17:24:30.742Z,1.00
2022-10-14T17:26:57.811Z,0.80
2022-10-14T17:29:24.858Z,1.30
2022-10-14T17:31:51.881Z,0.80
2022-10-14T17:34:18.830Z,0.73
2022-10-14T17:36:45.771Z,1.40
2022-10-14T17:39:16.482Z,0.80
2022-10-14T17:41:48.451Z,0.90
2022-10-14T17:44:15.842Z,0.80
2022-10-14T17:46:43.623Z,0.88
2022-10-14T17:49:11.233Z,0.85
2022-10-14T17:51:39.391Z,1.00
2022-10-14T17:54:09.743Z,0.80
2022-10-14T17:56:38.532Z,3.25
2022-10-14T17:59:08.472Z,1.30
2022-10-14T18:01:37.899Z,1.95
2022-10-14T18:04:17.670Z,1.88
2022-10-14T18:06:45.841Z,1.40
2022-10-14T18:09:13.471Z,1.25
2022-10-14T18:14:30.889Z,1.35
2022-10-14T18:16:59.605Z,1.50
2022-10-14T18:19:27.371Z,1.58
2022-10-14T18:21:54.338Z,1.60
2022-10-14T18:24:21.325Z,1.52
2022-10-14T18:26:50.952Z,1.20
2022-10-14T18:29:17.908Z,1.15
2022-10-14T18:31:45.229Z,1.20
2022-10-14T18:34:12.585Z,1.17
2022-10-14T18:36:39.742Z,1.48
2022-10-14T18:39:09.069Z,1.00
2022-10-14T18:41:39.516Z,0.90
2022-10-14T18:44:07.364Z,0.80
2022-10-14T18:46:37.055Z,0.80
2022-10-14T18:49:06.148Z,0.90
2022-10-14T18:51:35.780Z,0.57
2022-10-14T18:54:08.896Z,0.73
2022-10-14T18:56:39.153Z,0.60
2022-10-14T18:59:12.098Z,0.70
2022-10-14T19:01:40.389Z,0.60
2022-10-14T19:04:10.428Z,0.60
2022-10-14T19:06:38.114Z,0.70
2022-10-14T19:09:06.029Z,0.70
2022-10-14T19:11:34.915Z,0.50
2022-10-14T19:14:04.770Z,0.68
2022-10-14T19:16:34.857Z,0.40
2022-10-14T19:19:08.192Z,0.70
2022-10-14T19:21:37.166Z,0.60
2022-10-14T19:24:04.920Z,0.50
2022-10-14T19:26:35.620Z,0.70
2022-10-14T19:29:06.534Z,0.40
2022-10-14T19:31:38.178Z,0.73
2022-10-14T19:34:07.737Z,0.52
2022-10-14T19:36:37.383Z,0.85
2022-10-14T19:39:06.070Z,0.60
2022-10-14T19:41:38.887Z,0.60
2022-10-14T19:44:06.536Z,0.50
2022-10-14T19:46:33.554Z,0.50
2022-10-14T19:49:05.291Z,0.60
2022-10-14T19:51:34.134Z,0.50
2022-10-14T19:54:01.734Z,0.50
2022-10-14T19:56:29.763Z,0.55
2022-10-14T19:58:58.883Z,0.60
2022-10-14T20:01:28.850Z,0.70
2022-10-14T20:03:56.845Z,0.55
2022-10-14T20:06:24.621Z,0.47
2022-10-14T20:08:52.077Z,0.57
2022-10-14T20:11:22.417Z,0.55
2022-10-14T20:13:49.580Z,0.70
2022-10-14T20:16:17.776Z,0.70
2022-10-14T20:18:44.876Z,0.55
2022-10-14T20:21:15.368Z,0.60
2022-10-14T20:23:42.874Z,0.52
2022-10-14T20:26:18.541Z,0.55
2022-10-14T20:28:46.115Z,0.60
2022-10-14T20:31:15.918Z,0.80
2022-10-14T20:33:43.854Z,1.13
2022-10-14T20:36:13.972Z,0.65
2022-10-14T20:38:42.144Z,0.73
2022-10-14T20:41:26.760Z,0.93
2022-10-14T20:43:55.423Z,0.82
2022-10-14T20:46:25.247Z,0.70
2022-10-14T20:48:57.058Z,0.90
2022-10-14T20:51:25.362Z,0.70
2022-10-14T20:54:02.699Z,0.80
2022-10-14T20:56:32.897Z,0.80
2022-10-14T20:59:01.850Z,0.70
2022-10-14T21:01:30.884Z,0.50
2022-10-14T21:04:02.025Z,0.60
2022-10-14T21:08:58.041Z,0.70
2022-10-14T21:11:26.344Z,0.60
2022-10-14T21:13:55.969Z,0.70
2022-10-14T21:16:25.955Z,0.73
2022-10-14T21:19:04.942Z,0.70
2022-10-14T21:21:41.647Z,0.60
2022-10-14T21:24:13.509Z,0.70
2022-10-14T21:26:40.711Z,0.70
2022-10-14T21:29:08.038Z,0.50
2022-10-14T21:31:35.393Z,0.60
2022-10-14T21:34:06.167Z,0.63
2022-10-14T21:36:35.344Z,0.63
2022-10-14T21:39:06.941Z,0.70
2022-10-14T21:41:35.291Z,0.60
2022-10-14T21:44:02.294Z,0.60
2022-10-14T21:46:29.308Z,0.70
2022-10-14T21:48:57.640Z,0.60
2022-10-14T21:51:26.921Z,0.80
2022-10-14T21:53:54.343Z,0.80
2022-10-14T21:56:22.227Z,0.70
2022-10-14T21:58:49.209Z,0.60
2022-10-14T22:01:21.577Z,0.70
2022-10-14T22:04:00.362Z,0.60
2022-10-14T22:06:29.097Z,0.60
2022-10-14T22:08:58.719Z,0.60
2022-10-14T22:11:27.294Z,0.65
2022-10-14T22:13:55.952Z,0.70
2022-10-14T22:16:23.127Z,0.90
2022-10-14T22:18:51.876Z,0.80
2022-10-14T22:21:21.738Z,0.60
2022-10-14T22:23:50.066Z,0.70
2022-10-14T22:26:23.689Z,0.63
2022-10-14T22:28:56.765Z,0.80
2022-10-14T22:31:23.984Z,0.70
2022-10-14T22:33:51.098Z,0.90
2022-10-14T22:36:23.586Z,0.95
2022-10-14T22:38:53.499Z,0.55
2022-10-14T22:41:22.079Z,0.65
2022-10-14T22:43:51.691Z,0.60
2022-10-14T22:46:20.700Z,0.77
2022-10-14T22:48:48.906Z,0.60
2022-10-14T22:51:19.167Z,0.60
2022-10-14T22:53:47.334Z,0.67
2022-10-14T22:56:17.325Z,0.70
2022-10-14T22:58:44.475Z,0.52
2022-10-14T23:01:14.404Z,0.63
2022-10-14T23:03:42.326Z,0.50
2022-10-14T23:06:13.217Z,0.63
2022-10-14T23:08:40.489Z,0.65
2022-10-14T23:11:08.488Z,0.80
2022-10-14T23:13:35.408Z,0.75
2022-10-14T23:16:07.857Z,0.50
2022-10-14T23:18:36.779Z,0.60
2022-10-14T23:21:23.569Z,0.73
2022-10-14T23:23:51.775Z,0.70
2022-10-14T23:26:22.329Z,0.70
2022-10-14T23:28:54.434Z,0.60
2022-10-14T23:31:24.281Z,0.43
2022-10-14T23:33:52.715Z,0.50
2022-10-14T23:36:21.695Z,0.55
2022-10-14T23:38:48.914Z,0.60
2022-10-14T23:41:15.955Z,0.50
2022-10-14T23:43:43.013Z,0.50
2022-10-14T23:46:10.007Z,0.50
2022-10-14T23:48:37.818Z,0.80
2022-10-14T23:51:04.751Z,0.50
2022-10-14T23:53:31.904Z,0.65
2022-10-14T23:55:58.761Z,0.73
2022-10-14T23:58:28.709Z,0.50
